createdAt,value
2023-01-22T00:07:08.714Z,18.02
2023-01-22T00:17:11.154Z,17.30
2023-01-22T00:27:14.019Z,17.70
2023-01-22T00:37:17.019Z,17.42
2023-01-22T00:47:21.139Z,17.60
2023-01-22T00:57:24.377Z,17.90
2023-01-22T01:07:27.602Z,17.95
2023-01-22T01:17:29.958Z,17.52
2023-01-22T01:27:32.840Z,16.52
2023-01-22T01:37:35.889Z,16.20
2023-01-22T01:47:38.482Z,15.68
2023-01-22T01:57:41.992Z,15.27
2023-01-22T02:07:45.362Z,14.45
2023-01-22T02:17:48.664Z,14.50
2023-01-22T02:27:51.627Z,13.32
2023-01-22T02:37:57.833Z,13.05
2023-01-22T02:48:00.958Z,12.90
2023-01-22T02:58:04.843Z,11.85
2023-01-22T03:08:09.258Z,11.40
2023-01-22T03:18:30.935Z,12.05
2023-01-22T03:28:35.977Z,10.82
2023-01-22T03:38:39.187Z,10.52
2023-01-22T03:48:51.061Z,10.30
2023-01-22T03:58:54.714Z,9.90
2023-01-22T04:08:58.789Z,9.45
2023-01-22T04:19:06.436Z,9.05
2023-01-22T04:29:15.325Z,8.93
2023-01-22T04:39:19.483Z,8.30
2023-01-22T04:49:22.668Z,8.68
2023-01-22T04:59:27.844Z,8.07
2023-01-22T05:09:33.031Z,7.90
2023-01-22T05:19:37.648Z,7.43
2023-01-22T05:29:44.395Z,7.22
2023-01-22T05:39:54.810Z,6.70
2023-01-22T05:49:58.939Z,6.22
2023-01-22T06:00:02.075Z,6.78
2023-01-22T06:10:06.836Z,6.53
2023-01-22T06:20:16.282Z,5.90
2023-01-22T06:30:19.907Z,6.20
2023-01-22T06:40:23.842Z,5.97
2023-01-22T06:50:26.929Z,5.25
2023-01-22T07:00:30.124Z,5.40
2023-01-22T07:10:33.188Z,5.25
2023-01-22T07:20:35.523Z,5.10
2023-01-22T07:30:40.474Z,4.85
2023-01-22T07:40:43.640Z,5.15
2023-01-22T07:50:46.905Z,5.45
2023-01-22T08:00:50.487Z,4.90
2023-01-22T08:10:53.189Z,4.80
2023-01-22T08:20:55.603Z,4.53
2023-01-22T08:30:59.787Z,4.53
2023-01-22T08:41:02.557Z,4.85
2023-01-22T08:51:05.876Z,4.93
2023-01-22T09:01:15.423Z,4.55
2023-01-22T09:11:18.042Z,5.10
2023-01-22T09:21:20.699Z,5.60
2023-01-22T09:31:23.278Z,5.20
2023-01-22T09:41:36.731Z,5.80
2023-01-22T09:51:39.940Z,5.88
2023-01-22T10:01:48.314Z,6.20
2023-01-22T10:11:54.915Z,6.07
2023-01-22T10:22:04.957Z,6.45
2023-01-22T10:32:26.461Z,7.20
2023-01-22T10:42:30.016Z,6.93
2023-01-22T10:52:50.319Z,7.35
2023-01-22T11:13:02.777Z,7.75
2023-01-22T11:23:11.048Z,8.50
2023-01-22T11:33:27.754Z,8.23
2023-01-22T11:43:55.704Z,9.00
2023-01-22T11:54:23.213Z,9.25
2023-01-22T12:04:53.765Z,9.65
2023-01-22T12:15:24.371Z,9.73
2023-01-22T12:25:43.776Z,9.97
2023-01-22T12:35:50.338Z,10.77
2023-01-22T12:46:16.925Z,10.77
2023-01-22T12:56:31.495Z,11.55
2023-01-22T13:06:39.836Z,10.98
2023-01-22T13:16:53.872Z,11.05
2023-01-22T13:27:00.365Z,10.70
2023-01-22T13:37:03.884Z,11.23
2023-01-22T13:47:07.230Z,11.70
2023-01-22T13:57:20.163Z,11.23
2023-01-22T14:07:23.502Z,11.27
2023-01-22T14:17:33.442Z,11.30
2023-01-22T14:27:47.887Z,11.50
2023-01-22T14:37:52.245Z,11.82
2023-01-22T14:47:55.813Z,11.40
2023-01-22T14:58:00.075Z,11.30
2023-01-22T15:08:03.053Z,11.73
2023-01-22T15:18:05.564Z,10.95
2023-01-22T15:28:08.080Z,11.52
2023-01-22T15:38:11.215Z,12.07
2023-01-22T15:48:16.126Z,11.75
2023-01-22T15:58:18.511Z,12.18
2023-01-22T16:08:21.810Z,12.85
2023-01-22T16:18:24.218Z,12.68
2023-01-22T16:28:27.715Z,12.10
2023-01-22T16:38:31.942Z,12.48
2023-01-22T16:48:35.188Z,11.85
2023-01-22T16:58:38.396Z,11.18
2023-01-22T17:08:41.524Z,11.57
2023-01-22T17:18:44.157Z,11.27
2023-01-22T17:28:46.974Z,10.73
2023-01-22T17:38:51.173Z,11.18
2023-01-22T17:48:56.887Z,11.55
2023-01-22T17:59:03.532Z,12.32
2023-01-22T18:09:08.096Z,11.07
2023-01-22T18:19:12.061Z,11.05
2023-01-22T18:29:14.817Z,11.85
2023-01-22T18:39:19.497Z,11.50
2023-01-22T18:49:23.376Z,11.60
2023-01-22T18:59:27.331Z,11.55
2023-01-22T19:09:31.734Z,10.60
2023-01-22T19:19:34.368Z,10.02
2023-01-22T19:29:37.730Z,10.02
2023-01-22T19:39:41.682Z,9.25
2023-01-22T19:49:45.479Z,9.55
2023-01-22T19:59:52.415Z,9.48
2023-01-22T20:09:55.453Z,9.40
2023-01-22T20:19:57.863Z,9.32
2023-01-22T20:30:01.821Z,9.02
2023-01-22T20:40:05.298Z,8.95
2023-01-22T20:50:08.888Z,8.73
2023-01-22T21:00:12.918Z,9.05
2023-01-22T21:10:16.874Z,8.52
2023-01-22T21:20:19.700Z,8.68
2023-01-22T21:30:22.589Z,9.30
2023-01-22T21:40:25.779Z,8.75
2023-01-22T21:50:28.911Z,9.60
2023-01-22T22:00:32.112Z,9.18
2023-01-22T22:10:37.275Z,8.27
2023-01-22T22:20:39.913Z,8.32
2023-01-22T22:30:42.492Z,8.13
2023-01-22T22:40:45.629Z,8.32
2023-01-22T22:50:48.732Z,8.27
2023-01-22T23:00:53.435Z,8.15
2023-01-22T23:10:56.904Z,7.60
2023-01-22T23:21:17.358Z,7.47
2023-01-22T23:31:20.806Z,7.45
2023-01-22T23:41:24.286Z,7.78
2023-01-22T23:51:27.753Z,7.13
